createdAt,value
2019-03-30T00:01:00.257Z,4.78
2019-03-30T00:03:31.154Z,4.67
2019-03-30T00:06:02.460Z,4.44
2019-03-30T00:08:33.254Z,4.30
2019-03-30T00:11:03.965Z,4.24
2019-03-30T00:13:34.751Z,4.19
2019-03-30T00:16:06.083Z,4.18
2019-03-30T00:18:36.838Z,4.31
2019-03-30T00:21:07.566Z,4.44
2019-03-30T00:23:38.529Z,4.42
2019-03-30T00:26:09.291Z,4.35
2019-03-30T00:28:40.006Z,4.07
2019-03-30T00:31:10.957Z,3.96
2019-03-30T00:33:41.877Z,4.08
2019-03-30T00:36:12.917Z,3.96
2019-03-30T00:38:43.674Z,3.92
2019-03-30T00:41:14.672Z,3.93
2019-03-30T00:43:45.415Z,3.70
2019-03-30T00:46:16.225Z,3.62
2019-03-30T00:48:46.955Z,3.69
2019-03-30T00:51:17.783Z,3.62
2019-03-30T00:53:48.547Z,3.47
2019-03-30T00:56:19.942Z,3.44
2019-03-30T00:58:50.679Z,3.63
2019-03-30T01:01:21.420Z,3.78
2019-03-30T01:03:52.175Z,3.80
2019-03-30T01:06:23.019Z,3.42
2019-03-30T01:08:53.782Z,3.35
2019-03-30T01:11:25.295Z,3.19
2019-03-30T01:13:56.071Z,3.16
2019-03-30T01:16:26.859Z,3.29
2019-03-30T01:18:57.748Z,3.04
2019-03-30T01:21:28.647Z,2.93
2019-03-30T01:23:59.855Z,3.06
2019-03-30T01:26:30.592Z,2.94
2019-03-30T01:29:01.663Z,2.93
2019-03-30T01:31:32.403Z,2.80
2019-03-30T01:34:06.031Z,2.72
2019-03-30T01:36:37.046Z,2.61
2019-03-30T01:39:09.207Z,2.48
2019-03-30T01:41:40.253Z,2.52
2019-03-30T01:44:11.161Z,2.39
2019-03-30T01:46:42.032Z,2.29
2019-03-30T01:49:13.119Z,2.41
2019-03-30T01:51:43.868Z,2.38
2019-03-30T01:54:14.630Z,2.46
2019-03-30T01:56:45.343Z,2.41
2019-03-30T01:59:16.101Z,2.18
2019-03-30T02:01:46.857Z,2.19
2019-03-30T02:04:17.674Z,2.23
2019-03-30T02:06:48.376Z,2.11
2019-03-30T02:09:19.215Z,2.00
2019-03-30T02:11:50.011Z,1.94
2019-03-30T02:14:20.783Z,1.90
2019-03-30T02:16:51.572Z,1.97
2019-03-30T02:19:22.665Z,1.87
2019-03-30T02:21:53.389Z,1.89
2019-03-30T02:24:24.149Z,1.89
2019-03-30T02:26:54.916Z,1.71
2019-03-30T02:29:25.960Z,1.76
2019-03-30T02:31:56.745Z,1.84
2019-03-30T02:34:27.581Z,1.83
2019-03-30T02:36:58.458Z,1.80
2019-03-30T02:39:29.218Z,1.88
2019-03-30T02:42:00.121Z,1.94
2019-03-30T02:44:30.883Z,2.04
2019-03-30T02:47:01.595Z,1.80
2019-03-30T02:49:32.346Z,1.74
2019-03-30T02:52:03.064Z,1.72
2019-03-30T02:54:33.800Z,1.76
2019-03-30T02:57:04.817Z,1.72
2019-03-30T02:59:35.551Z,1.58
2019-03-30T03:02:06.303Z,1.41
2019-03-30T03:04:37.056Z,1.35
2019-03-30T03:07:07.881Z,1.54
2019-03-30T03:09:38.779Z,1.66
2019-03-30T03:12:09.513Z,1.64
2019-03-30T03:14:40.277Z,1.59
2019-03-30T03:17:10.981Z,1.51
2019-03-30T03:19:42.275Z,1.37
2019-03-30T03:22:12.975Z,1.26
2019-03-30T03:24:43.727Z,1.16
2019-03-30T03:27:14.636Z,1.15
2019-03-30T03:29:45.494Z,1.08
2019-03-30T03:32:16.197Z,0.96
2019-03-30T03:34:46.953Z,1.05
2019-03-30T03:37:17.690Z,1.00
2019-03-30T03:39:48.495Z,1.07
2019-03-30T03:42:19.204Z,1.04
2019-03-30T03:44:50.196Z,1.05
2019-03-30T03:47:20.903Z,0.92
2019-03-30T03:49:52.117Z,0.89
2019-03-30T03:52:22.993Z,0.82
2019-03-30T03:54:54.639Z,0.96
2019-03-30T03:57:28.307Z,1.18
2019-03-30T04:00:00.614Z,1.21
2019-03-30T04:02:37.098Z,1.20
2019-03-30T04:05:09.746Z,1.37
2019-03-30T04:07:43.134Z,1.34
2019-03-30T04:10:14.021Z,1.37
2019-03-30T04:12:47.434Z,1.37
2019-03-30T04:15:27.490Z,1.17
2019-03-30T04:17:58.193Z,1.24
2019-03-30T04:20:29.313Z,1.29
2019-03-30T04:23:00.033Z,1.38
2019-03-30T04:25:30.780Z,1.36
2019-03-30T04:28:02.517Z,1.30
2019-03-30T04:30:33.268Z,1.25
2019-03-30T04:33:03.992Z,1.25
2019-03-30T04:35:35.238Z,1.21
2019-03-30T04:38:06.134Z,1.28
2019-03-30T04:40:36.959Z,1.25
2019-03-30T04:43:07.730Z,1.04
2019-03-30T04:45:38.557Z,1.13
2019-03-30T04:48:09.254Z,1.15
2019-03-30T04:50:40.095Z,1.01
2019-03-30T04:53:11.002Z,1.00
2019-03-30T04:55:42.001Z,0.99
2019-03-30T04:58:12.775Z,1.21
2019-03-30T05:00:43.580Z,1.36
2019-03-30T05:03:14.400Z,1.16
2019-03-30T05:05:45.223Z,1.06
2019-03-30T05:08:16.002Z,1.10
2019-03-30T05:10:46.823Z,1.12
2019-03-30T05:13:17.764Z,1.16
2019-03-30T05:15:48.833Z,1.18
2019-03-30T05:18:19.577Z,1.18
2019-03-30T05:20:50.315Z,1.43
2019-03-30T05:23:21.798Z,1.50
2019-03-30T05:25:52.601Z,1.62
2019-03-30T05:28:23.321Z,1.67
2019-03-30T05:30:54.115Z,1.63
2019-03-30T05:33:24.831Z,1.62
2019-03-30T05:35:55.560Z,1.60
2019-03-30T05:38:26.267Z,1.41
2019-03-30T05:40:57.135Z,1.40
2019-03-30T05:43:27.853Z,1.41
2019-03-30T05:45:58.767Z,1.50
2019-03-30T05:48:29.554Z,1.44
2019-03-30T05:51:00.312Z,1.37
2019-03-30T05:53:31.213Z,1.41
2019-03-30T05:56:02.277Z,1.56
2019-03-30T05:58:32.959Z,1.75
2019-03-30T06:01:03.701Z,2.07
2019-03-30T06:03:34.656Z,3.00
2019-03-30T06:06:05.656Z,3.93
2019-03-30T06:08:36.401Z,4.76
2019-03-30T06:11:07.211Z,5.63
2019-03-30T06:13:37.929Z,6.35
2019-03-30T06:16:08.782Z,6.84
2019-03-30T06:18:39.509Z,6.95
2019-03-30T06:21:10.252Z,6.28
2019-03-30T06:23:41.661Z,6.52
2019-03-30T06:26:12.426Z,6.81
2019-03-30T06:28:43.128Z,7.32
2019-03-30T06:31:13.933Z,8.06
2019-03-30T06:33:44.663Z,6.91
2019-03-30T06:36:15.405Z,7.01
2019-03-30T06:38:46.095Z,8.35
2019-03-30T06:41:17.664Z,8.42
2019-03-30T06:43:48.357Z,8.99
2019-03-30T06:46:19.447Z,9.03
2019-03-30T06:48:50.178Z,9.32
2019-03-30T06:51:20.942Z,9.84
2019-03-30T06:53:51.642Z,9.69
2019-03-30T06:56:22.426Z,10.28
2019-03-30T06:58:53.311Z,10.66
2019-03-30T07:01:24.207Z,10.45
2019-03-30T07:03:55.514Z,9.66
2019-03-30T07:06:26.545Z,11.14
2019-03-30T07:08:58.218Z,10.70
2019-03-30T07:11:32.761Z,11.24
2019-03-30T07:14:05.526Z,9.79
2019-03-30T07:16:38.555Z,10.49
2019-03-30T07:19:09.649Z,10.09
2019-03-30T07:21:40.383Z,10.61
2019-03-30T07:24:11.097Z,11.03
2019-03-30T07:26:41.843Z,11.54
2019-03-30T07:29:12.638Z,11.10
2019-03-30T07:31:43.473Z,11.25
2019-03-30T07:34:14.225Z,10.83
2019-03-30T07:36:45.519Z,10.52
2019-03-30T07:39:16.216Z,11.35
2019-03-30T07:41:47.061Z,11.92
2019-03-30T07:44:17.757Z,11.44
2019-03-30T07:46:48.579Z,12.87
2019-03-30T07:49:19.348Z,13.05
2019-03-30T07:51:50.125Z,13.38
2019-03-30T07:54:20.858Z,14.00
2019-03-30T07:57:04.176Z,15.15
2019-03-30T07:59:24.413Z,14.58
2019-03-30T08:01:55.191Z,14.58
2019-03-30T08:04:28.665Z,15.73
2019-03-30T08:06:58.792Z,16.20
2019-03-30T08:09:29.692Z,16.59
2019-03-30T08:12:00.822Z,17.22
2019-03-30T08:14:31.700Z,17.65
2019-03-30T08:17:02.435Z,16.93
2019-03-30T08:19:33.561Z,18.85
2019-03-30T08:22:04.340Z,20.91
2019-03-30T08:24:35.209Z,22.44
2019-03-30T08:27:05.961Z,21.63
2019-03-30T08:29:36.773Z,21.29
2019-03-30T08:32:07.553Z,21.66
2019-03-30T08:34:39.154Z,23.33
2019-03-30T08:37:09.884Z,24.22
2019-03-30T08:39:40.612Z,24.85
2019-03-30T08:42:11.332Z,25.15
2019-03-30T08:44:42.087Z,25.82
2019-03-30T08:47:12.798Z,26.00
2019-03-30T08:49:43.679Z,25.34
2019-03-30T08:52:14.402Z,26.77
2019-03-30T08:54:45.158Z,25.73
2019-03-30T08:57:16.396Z,26.41
2019-03-30T08:59:47.147Z,25.77
2019-03-30T09:02:18.229Z,25.07
2019-03-30T09:04:48.942Z,27.37
2019-03-30T09:07:19.968Z,26.69
2019-03-30T09:09:50.691Z,26.95
2019-03-30T09:12:21.673Z,26.40
2019-03-30T09:14:52.410Z,26.28
2019-03-30T09:17:23.121Z,26.95
2019-03-30T09:19:54.408Z,26.99
2019-03-30T09:22:25.132Z,25.19
2019-03-30T09:24:55.865Z,23.03
2019-03-30T09:27:26.618Z,24.50
2019-03-30T09:29:57.349Z,23.30
2019-03-30T09:32:28.339Z,21.89
2019-03-30T09:34:59.138Z,20.59
2019-03-30T09:37:29.894Z,19.94
2019-03-30T09:40:00.590Z,20.10
2019-03-30T09:42:31.386Z,20.23
2019-03-30T09:45:02.114Z,19.23
2019-03-30T09:47:33.305Z,19.07
2019-03-30T09:50:04.305Z,18.44
2019-03-30T09:52:35.068Z,18.80
2019-03-30T09:55:06.386Z,18.68
2019-03-30T09:57:37.129Z,18.67
2019-03-30T10:00:09.634Z,18.40
2019-03-30T10:02:40.399Z,18.81
2019-03-30T10:05:11.354Z,18.36
2019-03-30T10:07:42.137Z,18.18
2019-03-30T10:10:13.355Z,18.28
2019-03-30T10:12:44.105Z,17.93
2019-03-30T10:15:15.405Z,17.83
2019-03-30T10:17:46.148Z,17.40
2019-03-30T10:20:17.308Z,17.23
2019-03-30T10:22:48.699Z,17.11
2019-03-30T10:25:19.405Z,17.38
2019-03-30T10:27:50.140Z,17.53
2019-03-30T10:30:21.048Z,17.54
2019-03-30T10:32:51.803Z,17.67
2019-03-30T10:35:22.649Z,17.75
2019-03-30T10:37:53.381Z,17.82
2019-03-30T10:40:24.278Z,17.24
2019-03-30T10:42:55.027Z,17.31
2019-03-30T10:45:26.162Z,17.52
2019-03-30T10:47:56.896Z,17.63
2019-03-30T10:50:27.655Z,17.98
2019-03-30T10:52:58.487Z,18.20
2019-03-30T10:55:29.274Z,18.37
2019-03-30T10:58:00.014Z,18.53
2019-03-30T11:00:38.336Z,19.02
2019-03-30T11:03:09.675Z,18.69
2019-03-30T11:05:40.558Z,18.13
2019-03-30T11:08:11.302Z,18.89
2019-03-30T11:10:42.954Z,18.50
2019-03-30T11:13:13.711Z,19.39
2019-03-30T11:15:44.434Z,19.69
2019-03-30T11:18:15.339Z,20.54
2019-03-30T11:20:46.129Z,20.33
2019-03-30T11:23:16.941Z,19.82
2019-03-30T11:25:50.222Z,20.25
2019-03-30T11:28:20.961Z,20.92
2019-03-30T11:30:51.694Z,20.94
2019-03-30T11:33:23.075Z,21.09
2019-03-30T11:35:53.817Z,24.19
2019-03-30T11:38:24.586Z,27.78
2019-03-30T11:40:55.293Z,25.84
2019-03-30T11:43:26.116Z,28.17
2019-03-30T11:45:57.057Z,30.81
2019-03-30T11:48:27.790Z,29.74
2019-03-30T11:50:59.213Z,29.71
2019-03-30T11:53:29.976Z,31.46
2019-03-30T11:56:00.747Z,33.11
2019-03-30T11:58:32.058Z,33.84
2019-03-30T12:01:02.773Z,33.85
2019-03-30T12:03:34.260Z,33.51
2019-03-30T12:06:05.117Z,32.85
2019-03-30T12:08:35.944Z,35.05
2019-03-30T12:11:07.633Z,35.95
2019-03-30T12:13:38.394Z,36.30
2019-03-30T12:16:09.247Z,37.95
2019-03-30T12:18:39.990Z,35.41
2019-03-30T12:21:10.761Z,36.80
2019-03-30T12:23:42.833Z,33.93
2019-03-30T12:26:14.441Z,32.02
2019-03-30T12:28:45.194Z,32.01
2019-03-30T12:31:16.663Z,32.83
2019-03-30T12:33:47.553Z,35.07
2019-03-30T12:36:18.405Z,33.94
2019-03-30T12:38:49.165Z,35.35
2019-03-30T12:41:20.335Z,36.38
2019-03-30T12:43:51.162Z,35.50
2019-03-30T12:46:21.888Z,35.53
2019-03-30T12:48:52.629Z,30.70
2019-03-30T12:51:23.721Z,29.90
2019-03-30T12:53:55.345Z,27.46
2019-03-30T12:56:26.539Z,25.78
2019-03-30T12:58:57.300Z,24.00
2019-03-30T13:01:28.106Z,23.14
2019-03-30T13:03:58.835Z,22.03
2019-03-30T13:06:29.594Z,21.39
2019-03-30T13:09:00.325Z,20.68
2019-03-30T13:11:31.585Z,20.79
2019-03-30T13:14:02.321Z,20.79
2019-03-30T13:16:33.035Z,21.53
2019-03-30T13:19:04.006Z,20.92
2019-03-30T13:21:34.781Z,22.60
2019-03-30T13:24:05.669Z,26.65
2019-03-30T13:26:36.404Z,28.62
2019-03-30T13:29:07.228Z,29.67
2019-03-30T13:31:37.972Z,30.50
2019-03-30T13:34:08.713Z,29.55
2019-03-30T13:36:40.673Z,31.44
2019-03-30T13:39:11.918Z,31.18
2019-03-30T13:41:43.098Z,30.47
2019-03-30T13:44:13.841Z,29.45
2019-03-30T13:46:44.633Z,31.28
2019-03-30T13:49:16.201Z,32.01
2019-03-30T13:51:46.902Z,30.46
2019-03-30T13:54:17.870Z,27.57
2019-03-30T13:56:49.142Z,28.86
2019-03-30T13:59:19.976Z,29.53
2019-03-30T14:01:50.789Z,28.83
2019-03-30T14:04:21.949Z,30.21
2019-03-30T14:06:52.919Z,32.38
2019-03-30T14:09:23.768Z,32.03
2019-03-30T14:11:54.656Z,31.90
2019-03-30T14:14:26.032Z,29.72
2019-03-30T14:16:57.034Z,32.53
2019-03-30T14:19:28.040Z,32.63
2019-03-30T14:21:59.005Z,32.72
2019-03-30T14:24:29.992Z,32.08
2019-03-30T14:27:00.760Z,28.28
2019-03-30T14:29:31.693Z,25.37
2019-03-30T14:32:02.387Z,22.71
2019-03-30T14:34:33.199Z,22.22
2019-03-30T14:37:04.173Z,21.34
2019-03-30T14:39:35.155Z,21.15
2019-03-30T14:42:05.977Z,20.90
2019-03-30T14:44:36.718Z,20.48
2019-03-30T14:47:07.482Z,20.37
2019-03-30T14:49:38.419Z,19.86
2019-03-30T14:52:09.490Z,19.36
2019-03-30T14:54:52.062Z,19.35
2019-03-30T14:57:12.932Z,19.33
2019-03-30T14:59:43.736Z,19.78
2019-03-30T15:02:14.490Z,21.42
2019-03-30T15:04:45.246Z,23.71
2019-03-30T15:07:15.972Z,25.28
2019-03-30T15:09:46.806Z,26.41
2019-03-30T15:12:17.505Z,25.78
2019-03-30T15:14:48.345Z,26.68
2019-03-30T15:17:19.676Z,28.08
2019-03-30T15:19:50.396Z,27.10
2019-03-30T15:22:21.251Z,23.84
2019-03-30T15:24:51.951Z,23.69
2019-03-30T15:27:22.692Z,22.23
2019-03-30T15:29:53.468Z,21.27
2019-03-30T15:32:24.827Z,20.12
2019-03-30T15:34:58.295Z,19.86
2019-03-30T15:37:28.139Z,19.98
2019-03-30T15:39:58.873Z,19.91
2019-03-30T15:42:29.628Z,19.76
2019-03-30T15:45:00.673Z,19.67
2019-03-30T15:47:31.591Z,19.39
2019-03-30T15:50:02.301Z,19.04
2019-03-30T15:52:33.202Z,18.89
2019-03-30T15:55:04.281Z,18.89
2019-03-30T15:57:35.113Z,18.97
2019-03-30T16:00:07.261Z,18.72
2019-03-30T16:02:38.239Z,18.80
2019-03-30T16:05:09.544Z,18.82
2019-03-30T16:07:40.361Z,18.68
2019-03-30T16:10:12.103Z,18.53
2019-03-30T16:12:43.127Z,18.49
2019-03-30T16:15:14.122Z,18.44
2019-03-30T16:17:44.870Z,18.39
2019-03-30T16:20:16.231Z,18.23
2019-03-30T16:22:47.127Z,18.16
2019-03-30T16:25:18.475Z,18.12
2019-03-30T16:27:49.199Z,17.98
2019-03-30T16:30:20.466Z,17.92
2019-03-30T16:32:51.588Z,17.82
2019-03-30T16:35:22.255Z,17.86
2019-03-30T16:37:52.997Z,17.74
2019-03-30T16:40:24.077Z,17.73
2019-03-30T16:42:55.152Z,17.61
2019-03-30T16:45:25.877Z,17.62
2019-03-30T16:47:57.063Z,17.60
2019-03-30T16:50:28.022Z,17.49
2019-03-30T16:52:58.802Z,17.32
2019-03-30T16:55:29.791Z,17.32
2019-03-30T16:58:00.779Z,17.29
2019-03-30T17:00:35.261Z,17.20
2019-03-30T17:03:06.431Z,17.05
2019-03-30T17:05:37.155Z,17.08
2019-03-30T17:08:08.024Z,17.04
2019-03-30T17:10:40.505Z,16.90
2019-03-30T17:13:11.240Z,16.74
2019-03-30T17:15:41.953Z,16.57
2019-03-30T17:18:13.303Z,16.45
2019-03-30T17:20:44.290Z,16.39
2019-03-30T17:23:15.079Z,16.36
2019-03-30T17:25:45.767Z,16.27
2019-03-30T17:28:16.535Z,16.18
2019-03-30T17:30:47.324Z,16.08
2019-03-30T17:33:18.088Z,16.03
2019-03-30T17:35:49.332Z,15.95
2019-03-30T17:38:20.051Z,16.00
2019-03-30T17:40:51.540Z,15.92
2019-03-30T17:43:22.362Z,15.73
2019-03-30T17:45:53.160Z,15.63
2019-03-30T17:48:23.909Z,15.36
2019-03-30T17:50:57.964Z,15.09
2019-03-30T17:53:27.213Z,14.73
2019-03-30T17:55:57.947Z,14.55
2019-03-30T17:58:28.700Z,14.50
2019-03-30T18:00:59.400Z,14.26
2019-03-30T18:03:30.175Z,13.96
2019-03-30T18:06:00.882Z,13.91
2019-03-30T18:08:31.688Z,13.85
2019-03-30T18:11:04.128Z,13.61
2019-03-30T18:13:36.953Z,13.50
2019-03-30T18:16:07.779Z,13.35
2019-03-30T18:18:38.591Z,13.44
2019-03-30T18:21:09.793Z,13.66
2019-03-30T18:23:40.536Z,13.59
2019-03-30T18:26:11.247Z,13.34
2019-03-30T18:28:42.023Z,13.14
2019-03-30T18:31:12.729Z,13.09
2019-03-30T18:33:44.219Z,12.94
2019-03-30T18:36:17.652Z,12.90
2019-03-30T18:38:50.682Z,12.96
2019-03-30T18:41:21.582Z,12.80
2019-03-30T18:43:52.791Z,12.63
2019-03-30T18:46:23.520Z,12.63
2019-03-30T18:48:54.337Z,12.66
2019-03-30T18:51:25.765Z,12.62
2019-03-30T18:53:56.690Z,12.53
2019-03-30T18:56:28.036Z,12.64
2019-03-30T18:58:58.861Z,12.57
2019-03-30T19:01:29.553Z,12.53
2019-03-30T19:04:00.343Z,12.42
2019-03-30T19:06:31.097Z,12.30
2019-03-30T19:09:01.852Z,12.33
2019-03-30T19:11:32.579Z,12.32
2019-03-30T19:14:03.423Z,12.35
2019-03-30T19:16:34.476Z,12.35
2019-03-30T19:19:05.209Z,12.29
2019-03-30T19:21:35.911Z,12.30
2019-03-30T19:24:06.808Z,12.15
2019-03-30T19:26:37.614Z,11.99
2019-03-30T19:29:08.340Z,11.92
2019-03-30T19:31:39.129Z,12.04
2019-03-30T19:34:10.317Z,11.71
2019-03-30T19:36:41.114Z,11.66
2019-03-30T19:39:11.911Z,11.67
2019-03-30T19:41:42.644Z,11.48
2019-03-30T19:44:14.121Z,11.35
2019-03-30T19:46:44.929Z,11.10
2019-03-30T19:49:15.715Z,11.08
2019-03-30T19:51:46.451Z,11.29
2019-03-30T19:54:17.199Z,11.34
2019-03-30T19:56:47.992Z,11.06
2019-03-30T19:59:18.879Z,10.64
2019-03-30T20:01:49.595Z,10.37
2019-03-30T20:04:20.374Z,10.18
2019-03-30T20:06:51.211Z,10.06
2019-03-30T20:09:22.271Z,10.22
2019-03-30T20:11:53.714Z,10.00
2019-03-30T20:14:24.565Z,9.95
2019-03-30T20:16:55.618Z,9.88
2019-03-30T20:19:26.691Z,9.71
2019-03-30T20:21:57.650Z,9.92
2019-03-30T20:24:28.366Z,9.78
2019-03-30T20:26:59.215Z,9.81
2019-03-30T20:29:30.413Z,10.00
2019-03-30T20:32:01.119Z,10.09
2019-03-30T20:34:31.895Z,10.64
2019-03-30T20:37:02.670Z,10.42
2019-03-30T20:39:33.413Z,10.10
2019-03-30T20:42:04.142Z,10.02
2019-03-30T20:44:35.046Z,9.99
2019-03-30T20:47:05.854Z,9.91
2019-03-30T20:49:36.603Z,9.89
2019-03-30T20:52:07.587Z,9.81
2019-03-30T20:54:39.019Z,9.55
2019-03-30T20:57:09.826Z,9.32
2019-03-30T20:59:40.817Z,9.08
2019-03-30T21:02:11.536Z,8.88
2019-03-30T21:04:42.544Z,8.82
2019-03-30T21:07:13.320Z,8.72
2019-03-30T21:09:44.042Z,8.76
2019-03-30T21:12:15.527Z,8.50
2019-03-30T21:14:46.534Z,8.44
2019-03-30T21:17:17.821Z,8.49
2019-03-30T21:19:48.553Z,8.37
2019-03-30T21:22:19.336Z,8.38
2019-03-30T21:24:50.264Z,8.29
2019-03-30T21:27:21.101Z,8.24
2019-03-30T21:29:54.995Z,8.11
2019-03-30T21:32:25.932Z,7.84
2019-03-30T21:34:57.358Z,7.86
2019-03-30T21:37:28.092Z,7.94
2019-03-30T21:39:58.898Z,7.96
2019-03-30T21:42:29.603Z,7.82
2019-03-30T21:45:00.526Z,7.60
2019-03-30T21:47:31.430Z,7.80
2019-03-30T21:50:02.169Z,7.97
2019-03-30T21:52:32.908Z,7.94
2019-03-30T21:55:04.371Z,7.71
2019-03-30T21:57:40.895Z,7.50
2019-03-30T22:00:15.021Z,7.11
2019-03-30T22:02:45.757Z,6.99
2019-03-30T22:05:16.617Z,6.92
2019-03-30T22:07:47.429Z,7.09
2019-03-30T22:10:28.213Z,7.14
2019-03-30T22:12:59.103Z,7.05
2019-03-30T22:15:31.042Z,6.84
2019-03-30T22:18:01.789Z,6.95
2019-03-30T22:20:32.609Z,7.05
2019-03-30T22:23:03.306Z,7.03
2019-03-30T22:25:34.129Z,6.93
2019-03-30T22:28:04.858Z,6.98
2019-03-30T22:30:35.658Z,7.05
2019-03-30T22:33:06.803Z,7.00
2019-03-30T22:35:37.772Z,7.04
2019-03-30T22:38:08.561Z,7.11
2019-03-30T22:40:41.385Z,6.92
2019-03-30T22:43:11.831Z,6.68
2019-03-30T22:45:43.160Z,6.42
2019-03-30T22:48:14.008Z,6.28
2019-03-30T22:50:44.755Z,6.18
2019-03-30T22:53:15.556Z,5.99
2019-03-30T22:55:46.304Z,5.86
2019-03-30T22:58:17.000Z,5.92
2019-03-30T23:00:59.319Z,6.01
2019-03-30T23:03:30.027Z,5.99
2019-03-30T23:06:01.547Z,6.02
2019-03-30T23:08:32.244Z,5.88
2019-03-30T23:11:03.298Z,6.17
2019-03-30T23:13:34.049Z,6.40
2019-03-30T23:16:04.879Z,6.44
2019-03-30T23:18:35.708Z,6.53
2019-03-30T23:21:07.794Z,6.53
2019-03-30T23:23:38.510Z,6.48
2019-03-30T23:26:09.391Z,6.07
2019-03-30T23:28:40.183Z,5.76
2019-03-30T23:31:10.979Z,5.45
2019-03-30T23:33:41.765Z,5.29
2019-03-30T23:36:13.686Z,5.13
2019-03-30T23:38:44.423Z,5.06
2019-03-30T23:41:15.159Z,5.25
2019-03-30T23:43:45.860Z,5.41
2019-03-30T23:46:16.797Z,5.28
2019-03-30T23:48:47.508Z,5.17
2019-03-30T23:51:18.262Z,5.22
2019-03-30T23:53:48.978Z,5.33
2019-03-30T23:56:23.163Z,5.35
2019-03-30T23:58:54.348Z,5.26
